sensor_id;sensor_type;location;lat;lon;timestamp;P1;durP1;ratioP1;P2;durP2;ratioP2
59300;SDS011;45073;52.740;6.784;2023-05-07T00:01:08;12.77;;;9.05;;
59300;SDS011;45073;52.740;6.784;2023-05-07T00:03:33;13.85;;;7.35;;
59300;SDS011;45073;52.740;6.784;2023-05-07T00:05:59;12.75;;;9.35;;
59300;SDS011;45073;52.740;6.784;2023-05-07T00:08:25;12.73;;;10.52;;
59300;SDS011;45073;52.740;6.784;2023-05-07T00:10:50;13.20;;;10.63;;
59300;SDS011;45073;52.740;6.784;2023-05-07T00:13:16;15.57;;;8.20;;
59300;SDS011;45073;52.740;6.784;2023-05-07T00:15:41;13.60;;;8.27;;
59300;SDS011;45073;52.740;6.784;2023-05-07T00:18:07;15.23;;;8.88;;
59300;SDS011;45073;52.740;6.784;2023-05-07T00:20:32;15.90;;;10.93;;
59300;SDS011;45073;52.740;6.784;2023-05-07T00:22:58;16.10;;;11.48;;
59300;SDS011;45073;52.740;6.784;2023-05-07T00:25:24;13.23;;;7.93;;
59300;SDS011;45073;52.740;6.784;2023-05-07T00:27:49;14.73;;;10.05;;
59300;SDS011;45073;52.740;6.784;2023-05-07T00:30:15;14.95;;;13.35;;
59300;SDS011;45073;52.740;6.784;2023-05-07T00:32:40;15.85;;;12.95;;
59300;SDS011;45073;52.740;6.784;2023-05-07T00:35:06;15.63;;;13.50;;
59300;SDS011;45073;52.740;6.784;2023-05-07T00:37:32;15.68;;;13.98;;
59300;SDS011;45073;52.740;6.784;2023-05-07T00:39:58;15.23;;;10.40;;
59300;SDS011;45073;52.740;6.784;2023-05-07T00:42:24;17.10;;;10.98;;
59300;SDS011;45073;52.740;6.784;2023-05-07T00:44:49;22.77;;;18.08;;
59300;SDS011;45073;52.740;6.784;2023-05-07T00:47:15;18.83;;;16.83;;
59300;SDS011;45073;52.740;6.784;2023-05-07T00:49:42;18.85;;;16.52;;
59300;SDS011;45073;52.740;6.784;2023-05-07T00:52:14;19.20;;;17.15;;
59300;SDS011;45073;52.740;6.784;2023-05-07T00:54:41;18.90;;;16.80;;
59300;SDS011;45073;52.740;6.784;2023-05-07T00:57:07;19.00;;;11.63;;
59300;SDS011;45073;52.740;6.784;2023-05-07T00:59:36;18.27;;;12.02;;
59300;SDS011;45073;52.740;6.784;2023-05-07T01:02:02;15.80;;;11.32;;
59300;SDS011;45073;52.740;6.784;2023-05-07T01:04:27;19.50;;;17.20;;
59300;SDS011;45073;52.740;6.784;2023-05-07T01:06:54;16.88;;;11.70;;
59300;SDS011;45073;52.740;6.784;2023-05-07T01:09:21;20.98;;;18.88;;
59300;SDS011;45073;52.740;6.784;2023-05-07T01:11:49;20.48;;;18.27;;
59300;SDS011;45073;52.740;6.784;2023-05-07T01:14:16;17.73;;;11.98;;
59300;SDS011;45073;52.740;6.784;2023-05-07T01:16:43;19.83;;;17.70;;
59300;SDS011;45073;52.740;6.784;2023-05-07T01:19:09;18.15;;;12.20;;
59300;SDS011;45073;52.740;6.784;2023-05-07T01:21:36;18.10;;;12.00;;
59300;SDS011;45073;52.740;6.784;2023-05-07T01:24:03;16.33;;;12.07;;
59300;SDS011;45073;52.740;6.784;2023-05-07T01:26:30;17.35;;;13.38;;
59300;SDS011;45073;52.740;6.784;2023-05-07T01:28:55;17.83;;;13.05;;
59300;SDS011;45073;52.740;6.784;2023-05-07T01:31:21;19.45;;;17.48;;
59300;SDS011;45073;52.740;6.784;2023-05-07T01:33:49;20.70;;;18.33;;
59300;SDS011;45073;52.740;6.784;2023-05-07T01:36:17;20.63;;;18.48;;
59300;SDS011;45073;52.740;6.784;2023-05-07T01:38:45;15.90;;;11.25;;
59300;SDS011;45073;52.740;6.784;2023-05-07T01:41:11;18.92;;;12.10;;
59300;SDS011;45073;52.740;6.784;2023-05-07T01:43:38;20.27;;;18.17;;
59300;SDS011;45073;52.740;6.784;2023-05-07T01:46:06;20.50;;;18.35;;
59300;SDS011;45073;52.740;6.784;2023-05-07T01:48:34;21.98;;;19.67;;
59300;SDS011;45073;52.740;6.784;2023-05-07T01:51:00;19.35;;;12.48;;
59300;SDS011;45073;52.740;6.784;2023-05-07T01:53:27;15.70;;;10.57;;
59300;SDS011;45073;52.740;6.784;2023-05-07T01:55:53;22.38;;;20.08;;
59300;SDS011;45073;52.740;6.784;2023-05-07T01:58:19;22.38;;;14.07;;
59300;SDS011;45073;52.740;6.784;2023-05-07T02:00:44;21.52;;;19.33;;
59300;SDS011;45073;52.740;6.784;2023-05-07T02:03:10;18.88;;;13.15;;
59300;SDS011;45073;52.740;6.784;2023-05-07T02:05:36;19.23;;;13.13;;
59300;SDS011;45073;52.740;6.784;2023-05-07T02:08:01;22.23;;;20.00;;
59300;SDS011;45073;52.740;6.784;2023-05-07T02:10:27;21.05;;;13.57;;
59300;SDS011;45073;52.740;6.784;2023-05-07T02:12:53;21.10;;;13.70;;
59300;SDS011;45073;52.740;6.784;2023-05-07T02:15:18;20.42;;;12.45;;
59300;SDS011;45073;52.740;6.784;2023-05-07T02:18:06;24.73;;;22.23;;
59300;SDS011;45073;52.740;6.784;2023-05-07T02:20:32;22.02;;;14.45;;
59300;SDS011;45073;52.740;6.784;2023-05-07T02:22:58;24.25;;;21.75;;
59300;SDS011;45073;52.740;6.784;2023-05-07T02:25:23;22.15;;;13.32;;
59300;SDS011;45073;52.740;6.784;2023-05-07T02:27:49;22.17;;;14.00;;
59300;SDS011;45073;52.740;6.784;2023-05-07T02:30:15;27.05;;;24.23;;
59300;SDS011;45073;52.740;6.784;2023-05-07T02:32:40;24.02;;;15.38;;
59300;SDS011;45073;52.740;6.784;2023-05-07T02:35:06;22.98;;;14.35;;
59300;SDS011;45073;52.740;6.784;2023-05-07T02:37:32;23.48;;;14.88;;
59300;SDS011;45073;52.740;6.784;2023-05-07T02:39:58;28.02;;;25.13;;
59300;SDS011;45073;52.740;6.784;2023-05-07T02:42:23;25.92;;;16.08;;
59300;SDS011;45073;52.740;6.784;2023-05-07T02:44:49;22.13;;;15.27;;
59300;SDS011;45073;52.740;6.784;2023-05-07T02:47:14;29.92;;;26.83;;
59300;SDS011;45073;52.740;6.784;2023-05-07T02:49:40;25.80;;;16.17;;
59300;SDS011;45073;52.740;6.784;2023-05-07T02:52:06;26.38;;;15.98;;
59300;SDS011;45073;52.740;6.784;2023-05-07T02:54:32;26.13;;;18.00;;
59300;SDS011;45073;52.740;6.784;2023-05-07T02:56:58;31.40;;;28.40;;
59300;SDS011;45073;52.740;6.784;2023-05-07T02:59:25;24.08;;;17.33;;
59300;SDS011;45073;52.740;6.784;2023-05-07T03:01:51;27.55;;;17.10;;
59300;SDS011;45073;52.740;6.784;2023-05-07T03:04:17;31.10;;;28.10;;
59300;SDS011;45073;52.740;6.784;2023-05-07T03:06:42;27.95;;;18.67;;
59300;SDS011;45073;52.740;6.784;2023-05-07T03:09:08;26.23;;;17.17;;
59300;SDS011;45073;52.740;6.784;2023-05-07T03:11:33;29.73;;;18.83;;
59300;SDS011;45073;52.740;6.784;2023-05-07T03:14:00;33.72;;;30.13;;
59300;SDS011;45073;52.740;6.784;2023-05-07T03:16:26;33.30;;;29.95;;
59300;SDS011;45073;52.740;6.784;2023-05-07T03:18:52;27.30;;;17.92;;
59300;SDS011;45073;52.740;6.784;2023-05-07T03:21:17;27.05;;;17.95;;
59300;SDS011;45073;52.740;6.784;2023-05-07T03:23:43;33.47;;;30.20;;
59300;SDS011;45073;52.740;6.784;2023-05-07T03:26:09;34.53;;;31.10;;
59300;SDS011;45073;52.740;6.784;2023-05-07T03:28:34;29.65;;;18.23;;
59300;SDS011;45073;52.740;6.784;2023-05-07T03:31:00;31.27;;;17.35;;
59300;SDS011;45073;52.740;6.784;2023-05-07T03:33:26;25.77;;;16.85;;
59300;SDS011;45073;52.740;6.784;2023-05-07T03:35:52;35.00;;;31.35;;
59300;SDS011;45073;52.740;6.784;2023-05-07T03:38:18;29.05;;;17.55;;
59300;SDS011;45073;52.740;6.784;2023-05-07T03:40:43;28.35;;;17.85;;
59300;SDS011;45073;52.740;6.784;2023-05-07T03:43:09;29.17;;;20.75;;
59300;SDS011;45073;52.740;6.784;2023-05-07T03:45:35;36.15;;;32.40;;
59300;SDS011;45073;52.740;6.784;2023-05-07T03:48:01;27.25;;;17.35;;
59300;SDS011;45073;52.740;6.784;2023-05-07T03:50:27;26.25;;;17.10;;
59300;SDS011;45073;52.740;6.784;2023-05-07T03:52:52;27.13;;;17.60;;
59300;SDS011;45073;52.740;6.784;2023-05-07T03:55:18;27.70;;;16.60;;
59300;SDS011;45073;52.740;6.784;2023-05-07T03:57:43;33.47;;;30.05;;
59300;SDS011;45073;52.740;6.784;2023-05-07T04:00:09;27.83;;;17.48;;
59300;SDS011;45073;52.740;6.784;2023-05-07T04:02:35;26.10;;;16.30;;
59300;SDS011;45073;52.740;6.784;2023-05-07T04:05:01;28.08;;;19.05;;
59300;SDS011;45073;52.740;6.784;2023-05-07T04:07:26;27.77;;;17.45;;
59300;SDS011;45073;52.740;6.784;2023-05-07T04:09:52;25.92;;;16.67;;
59300;SDS011;45073;52.740;6.784;2023-05-07T04:12:17;31.17;;;28.13;;
59300;SDS011;45073;52.740;6.784;2023-05-07T04:14:43;27.17;;;18.70;;
59300;SDS011;45073;52.740;6.784;2023-05-07T04:17:09;32.28;;;28.98;;
59300;SDS011;45073;52.740;6.784;2023-05-07T04:19:35;25.95;;;16.80;;
59300;SDS011;45073;52.740;6.784;2023-05-07T04:22:01;28.63;;;16.42;;
59300;SDS011;45073;52.740;6.784;2023-05-07T04:24:27;29.27;;;26.38;;
59300;SDS011;45073;52.740;6.784;2023-05-07T04:26:56;24.33;;;15.43;;
59300;SDS011;45073;52.740;6.784;2023-05-07T04:29:23;27.50;;;15.77;;
59300;SDS011;45073;52.740;6.784;2023-05-07T04:31:48;23.33;;;14.57;;
59300;SDS011;45073;52.740;6.784;2023-05-07T04:34:14;24.80;;;14.60;;
59300;SDS011;45073;52.740;6.784;2023-05-07T04:36:42;27.88;;;25.20;;
59300;SDS011;45073;52.740;6.784;2023-05-07T04:39:08;24.17;;;16.50;;
59300;SDS011;45073;52.740;6.784;2023-05-07T04:41:35;25.10;;;14.45;;
59300;SDS011;45073;52.740;6.784;2023-05-07T04:44:01;28.33;;;25.52;;
59300;SDS011;45073;52.740;6.784;2023-05-07T04:46:28;29.73;;;26.73;;
59300;SDS011;45073;52.740;6.784;2023-05-07T04:48:54;22.50;;;14.63;;
59300;SDS011;45073;52.740;6.784;2023-05-07T04:51:20;22.55;;;14.82;;
59300;SDS011;45073;52.740;6.784;2023-05-07T04:53:45;22.05;;;14.93;;
59300;SDS011;45073;52.740;6.784;2023-05-07T04:56:11;23.75;;;14.35;;
59300;SDS011;45073;52.740;6.784;2023-05-07T04:58:37;21.63;;;14.88;;
59300;SDS011;45073;52.740;6.784;2023-05-07T05:01:03;26.23;;;23.55;;
59300;SDS011;45073;52.740;6.784;2023-05-07T05:03:29;22.88;;;14.98;;
59300;SDS011;45073;52.740;6.784;2023-05-07T05:05:55;24.88;;;15.85;;
59300;SDS011;45073;52.740;6.784;2023-05-07T05:08:22;21.23;;;14.13;;
59300;SDS011;45073;52.740;6.784;2023-05-07T05:10:47;23.88;;;16.27;;
59300;SDS011;45073;52.740;6.784;2023-05-07T05:13:14;23.42;;;16.83;;
59300;SDS011;45073;52.740;6.784;2023-05-07T05:15:40;27.30;;;24.50;;
59300;SDS011;45073;52.740;6.784;2023-05-07T05:18:06;23.60;;;15.70;;
59300;SDS011;45073;52.740;6.784;2023-05-07T05:20:31;24.48;;;14.25;;
59300;SDS011;45073;52.740;6.784;2023-05-07T05:22:57;23.02;;;14.55;;
59300;SDS011;45073;52.740;6.784;2023-05-07T05:25:23;25.95;;;14.13;;
59300;SDS011;45073;52.740;6.784;2023-05-07T05:27:48;26.70;;;24.10;;
59300;SDS011;45073;52.740;6.784;2023-05-07T05:30:14;20.75;;;13.95;;
59300;SDS011;45073;52.740;6.784;2023-05-07T05:32:40;23.63;;;15.27;;
59300;SDS011;45073;52.740;6.784;2023-05-07T05:35:05;24.85;;;15.07;;
59300;SDS011;45073;52.740;6.784;2023-05-07T05:37:31;22.02;;;13.75;;
59300;SDS011;45073;52.740;6.784;2023-05-07T05:39:57;20.70;;;14.77;;
59300;SDS011;45073;52.740;6.784;2023-05-07T05:42:22;27.80;;;25.10;;
59300;SDS011;45073;52.740;6.784;2023-05-07T05:44:48;25.60;;;15.27;;
59300;SDS011;45073;52.740;6.784;2023-05-07T05:47:14;27.08;;;24.35;;
59300;SDS011;45073;52.740;6.784;2023-05-07T05:49:40;21.70;;;15.68;;
59300;SDS011;45073;52.740;6.784;2023-05-07T05:52:05;23.40;;;15.63;;
59300;SDS011;45073;52.740;6.784;2023-05-07T05:54:31;24.30;;;16.50;;
59300;SDS011;45073;52.740;6.784;2023-05-07T05:56:56;29.35;;;26.55;;
59300;SDS011;45073;52.740;6.784;2023-05-07T05:59:22;23.92;;;14.90;;
59300;SDS011;45073;52.740;6.784;2023-05-07T06:01:48;29.92;;;26.98;;
59300;SDS011;45073;52.740;6.784;2023-05-07T06:04:13;24.77;;;16.75;;
59300;SDS011;45073;52.740;6.784;2023-05-07T06:06:39;24.50;;;15.35;;
59300;SDS011;45073;52.740;6.784;2023-05-07T06:09:05;29.42;;;26.63;;
59300;SDS011;45073;52.740;6.784;2023-05-07T06:11:31;26.50;;;15.30;;
59300;SDS011;45073;52.740;6.784;2023-05-07T06:13:57;26.88;;;16.58;;
59300;SDS011;45073;52.740;6.784;2023-05-07T06:16:24;24.27;;;15.57;;
59300;SDS011;45073;52.740;6.784;2023-05-07T06:18:50;23.95;;;16.23;;
59300;SDS011;45073;52.740;6.784;2023-05-07T06:21:15;26.23;;;17.60;;
59300;SDS011;45073;52.740;6.784;2023-05-07T06:23:41;26.73;;;17.45;;
59300;SDS011;45073;52.740;6.784;2023-05-07T06:26:07;30.08;;;26.90;;
59300;SDS011;45073;52.740;6.784;2023-05-07T06:28:32;27.05;;;17.45;;
59300;SDS011;45073;52.740;6.784;2023-05-07T06:31:10;26.92;;;18.08;;
59300;SDS011;45073;52.740;6.784;2023-05-07T06:33:37;30.13;;;27.17;;
59300;SDS011;45073;52.740;6.784;2023-05-07T06:36:02;31.50;;;28.17;;
59300;SDS011;45073;52.740;6.784;2023-05-07T06:38:28;33.42;;;30.13;;
59300;SDS011;45073;52.740;6.784;2023-05-07T06:40:54;26.30;;;16.27;;
59300;SDS011;45073;52.740;6.784;2023-05-07T06:43:20;27.45;;;16.67;;
59300;SDS011;45073;52.740;6.784;2023-05-07T06:45:46;26.83;;;17.10;;
59300;SDS011;45073;52.740;6.784;2023-05-07T06:48:12;26.98;;;16.92;;
59300;SDS011;45073;52.740;6.784;2023-05-07T06:50:37;32.88;;;29.60;;
59300;SDS011;45073;52.740;6.784;2023-05-07T06:53:03;34.22;;;30.85;;
59300;SDS011;45073;52.740;6.784;2023-05-07T06:55:28;26.63;;;17.17;;
59300;SDS011;45073;52.740;6.784;2023-05-07T06:57:54;28.15;;;17.40;;
59300;SDS011;45073;52.740;6.784;2023-05-07T07:00:20;26.58;;;16.40;;
59300;SDS011;45073;52.740;6.784;2023-05-07T07:02:45;34.33;;;30.90;;
59300;SDS011;45073;52.740;6.784;2023-05-07T07:05:11;27.80;;;17.55;;
59300;SDS011;45073;52.740;6.784;2023-05-07T07:07:36;33.50;;;30.25;;
59300;SDS011;45073;52.740;6.784;2023-05-07T07:10:02;28.45;;;18.30;;
59300;SDS011;45073;52.740;6.784;2023-05-07T07:12:29;27.80;;;20.35;;
59300;SDS011;45073;52.740;6.784;2023-05-07T07:14:55;28.52;;;19.95;;
59300;SDS011;45073;52.740;6.784;2023-05-07T07:17:21;30.02;;;19.00;;
59300;SDS011;45073;52.740;6.784;2023-05-07T07:19:46;34.30;;;30.75;;
59300;SDS011;45073;52.740;6.784;2023-05-07T07:22:12;34.95;;;31.63;;
59300;SDS011;45073;52.740;6.784;2023-05-07T07:24:37;29.40;;;18.95;;
59300;SDS011;45073;52.740;6.784;2023-05-07T07:27:03;29.35;;;19.45;;
59300;SDS011;45073;52.740;6.784;2023-05-07T07:29:28;34.03;;;30.63;;
59300;SDS011;45073;52.740;6.784;2023-05-07T07:31:55;33.95;;;30.58;;
59300;SDS011;45073;52.740;6.784;2023-05-07T07:34:21;29.50;;;18.70;;
59300;SDS011;45073;52.740;6.784;2023-05-07T07:36:47;28.08;;;20.42;;
59300;SDS011;45073;52.740;6.784;2023-05-07T07:39:13;26.70;;;19.73;;
59300;SDS011;45073;52.740;6.784;2023-05-07T07:41:38;33.67;;;30.35;;
59300;SDS011;45073;52.740;6.784;2023-05-07T07:44:04;34.30;;;30.90;;
59300;SDS011;45073;52.740;6.784;2023-05-07T07:46:32;28.75;;;18.83;;
59300;SDS011;45073;52.740;6.784;2023-05-07T07:48:58;28.40;;;21.52;;
59300;SDS011;45073;52.740;6.784;2023-05-07T07:51:24;32.33;;;29.23;;
59300;SDS011;45073;52.740;6.784;2023-05-07T07:53:51;33.90;;;30.45;;
59300;SDS011;45073;52.740;6.784;2023-05-07T07:56:17;29.38;;;19.58;;
59300;SDS011;45073;52.740;6.784;2023-05-07T07:58:42;27.10;;;19.63;;
59300;SDS011;45073;52.740;6.784;2023-05-07T08:01:08;33.63;;;30.25;;
59300;SDS011;45073;52.740;6.784;2023-05-07T08:03:33;29.65;;;21.45;;
59300;SDS011;45073;52.740;6.784;2023-05-07T08:06:00;30.83;;;20.25;;
59300;SDS011;45073;52.740;6.784;2023-05-07T08:08:25;32.70;;;29.45;;
59300;SDS011;45073;52.740;6.784;2023-05-07T08:10:51;32.03;;;28.90;;
59300;SDS011;45073;52.740;6.784;2023-05-07T08:13:17;27.90;;;20.88;;
59300;SDS011;45073;52.740;6.784;2023-05-07T08:15:43;32.00;;;28.77;;
59300;SDS011;45073;52.740;6.784;2023-05-07T08:18:08;32.10;;;28.90;;
59300;SDS011;45073;52.740;6.784;2023-05-07T08:20:34;29.23;;;21.13;;
59300;SDS011;45073;52.740;6.784;2023-05-07T08:23:04;31.90;;;28.77;;
59300;SDS011;45073;52.740;6.784;2023-05-07T08:25:32;34.53;;;30.92;;
59300;SDS011;45073;52.740;6.784;2023-05-07T08:27:58;27.55;;;19.65;;
59300;SDS011;45073;52.740;6.784;2023-05-07T08:30:24;31.13;;;28.02;;
59300;SDS011;45073;52.740;6.784;2023-05-07T08:32:49;30.88;;;27.77;;
59300;SDS011;45073;52.740;6.784;2023-05-07T08:35:15;31.90;;;28.77;;
59300;SDS011;45073;52.740;6.784;2023-05-07T08:37:41;31.05;;;27.83;;
59300;SDS011;45073;52.740;6.784;2023-05-07T08:40:06;25.40;;;19.40;;
59300;SDS011;45073;52.740;6.784;2023-05-07T08:42:33;30.35;;;27.55;;
59300;SDS011;45073;52.740;6.784;2023-05-07T08:45:04;29.95;;;26.98;;
59300;SDS011;45073;52.740;6.784;2023-05-07T08:47:34;30.15;;;27.15;;
59300;SDS011;45073;52.740;6.784;2023-05-07T08:50:10;31.92;;;28.85;;
59300;SDS011;45073;52.740;6.784;2023-05-07T08:52:36;28.52;;;25.83;;
59300;SDS011;45073;52.740;6.784;2023-05-07T08:55:02;25.98;;;20.08;;
59300;SDS011;45073;52.740;6.784;2023-05-07T08:57:28;28.13;;;25.42;;
59300;SDS011;45073;52.740;6.784;2023-05-07T08:59:57;28.67;;;25.80;;
59300;SDS011;45073;52.740;6.784;2023-05-07T09:02:32;28.58;;;25.83;;
59300;SDS011;45073;52.740;6.784;2023-05-07T09:04:58;27.25;;;24.55;;
59300;SDS011;45073;52.740;6.784;2023-05-07T09:07:23;29.10;;;26.23;;
59300;SDS011;45073;52.740;6.784;2023-05-07T09:09:50;28.55;;;25.50;;
59300;SDS011;45073;52.740;6.784;2023-05-07T09:12:17;28.90;;;25.98;;
59300;SDS011;45073;52.740;6.784;2023-05-07T09:14:43;27.58;;;24.67;;
59300;SDS011;45073;52.740;6.784;2023-05-07T09:17:09;27.50;;;24.80;;
59300;SDS011;45073;52.740;6.784;2023-05-07T09:19:43;26.95;;;24.35;;
59300;SDS011;45073;52.740;6.784;2023-05-07T09:22:10;24.48;;;20.10;;
59300;SDS011;45073;52.740;6.784;2023-05-07T09:24:36;25.75;;;23.15;;
59300;SDS011;45073;52.740;6.784;2023-05-07T09:27:06;25.05;;;22.65;;
59300;SDS011;45073;52.740;6.784;2023-05-07T09:29:33;26.70;;;24.02;;
59300;SDS011;45073;52.740;6.784;2023-05-07T09:32:03;25.98;;;23.38;;
59300;SDS011;45073;52.740;6.784;2023-05-07T09:34:31;28.02;;;25.42;;
59300;SDS011;45073;52.740;6.784;2023-05-07T09:37:03;25.75;;;23.08;;
59300;SDS011;45073;52.740;6.784;2023-05-07T09:39:39;24.50;;;22.10;;
59300;SDS011;45073;52.740;6.784;2023-05-07T09:42:12;24.13;;;21.70;;
59300;SDS011;45073;52.740;6.784;2023-05-07T09:44:40;24.30;;;21.92;;
59300;SDS011;45073;52.740;6.784;2023-05-07T09:47:08;24.40;;;21.90;;
59300;SDS011;45073;52.740;6.784;2023-05-07T09:49:35;23.23;;;20.83;;
59300;SDS011;45073;52.740;6.784;2023-05-07T09:52:03;23.75;;;21.17;;
59300;SDS011;45073;52.740;6.784;2023-05-07T09:54:31;24.05;;;21.75;;
59300;SDS011;45073;52.740;6.784;2023-05-07T09:56:58;22.65;;;20.38;;
59300;SDS011;45073;52.740;6.784;2023-05-07T09:59:27;23.77;;;21.33;;
59300;SDS011;45073;52.740;6.784;2023-05-07T10:01:56;22.70;;;20.42;;
59300;SDS011;45073;52.740;6.784;2023-05-07T10:04:24;22.58;;;20.38;;
59300;SDS011;45073;52.740;6.784;2023-05-07T10:06:51;23.52;;;21.23;;
59300;SDS011;45073;52.740;6.784;2023-05-07T10:09:17;22.77;;;20.67;;
59300;SDS011;45073;52.740;6.784;2023-05-07T10:11:43;22.70;;;20.45;;
59300;SDS011;45073;52.740;6.784;2023-05-07T10:14:09;23.23;;;20.92;;
59300;SDS011;45073;52.740;6.784;2023-05-07T10:16:36;22.38;;;20.15;;
59300;SDS011;45073;52.740;6.784;2023-05-07T10:19:05;22.25;;;20.00;;
59300;SDS011;45073;52.740;6.784;2023-05-07T10:22:17;22.88;;;20.48;;
59300;SDS011;45073;52.740;6.784;2023-05-07T10:24:29;21.67;;;19.47;;
59300;SDS011;45073;52.740;6.784;2023-05-07T10:26:59;22.15;;;19.95;;
59300;SDS011;45073;52.740;6.784;2023-05-07T10:32:45;21.95;;;19.75;;
59300;SDS011;45073;52.740;6.784;2023-05-07T10:35:23;20.92;;;18.75;;
59300;SDS011;45073;52.740;6.784;2023-05-07T10:37:51;22.13;;;20.02;;
59300;SDS011;45073;52.740;6.784;2023-05-07T10:40:17;20.73;;;18.52;;
59300;SDS011;45073;52.740;6.784;2023-05-07T10:45:24;21.40;;;19.20;;
59300;SDS011;45073;52.740;6.784;2023-05-07T10:48:12;21.25;;;19.15;;
59300;SDS011;45073;52.740;6.784;2023-05-07T10:50:42;19.30;;;17.33;;
59300;SDS011;45073;52.740;6.784;2023-05-07T10:55:47;19.58;;;17.65;;
59300;SDS011;45073;52.740;6.784;2023-05-07T11:00:56;20.30;;;18.38;;
59300;SDS011;45073;52.740;6.784;2023-05-07T11:03:23;18.98;;;17.10;;
59300;SDS011;45073;52.740;6.784;2023-05-07T11:06:08;21.17;;;19.02;;
59300;SDS011;45073;52.740;6.784;2023-05-07T11:08:56;18.38;;;16.48;;
59300;SDS011;45073;52.740;6.784;2023-05-07T11:17:03;20.58;;;18.48;;
59300;SDS011;45073;52.740;6.784;2023-05-07T11:19:48;18.95;;;16.95;;
59300;SDS011;45073;52.740;6.784;2023-05-07T11:25:02;19.25;;;17.25;;
59300;SDS011;45073;52.740;6.784;2023-05-07T11:27:29;20.25;;;18.05;;
59300;SDS011;45073;52.740;6.784;2023-05-07T11:29:55;20.55;;;18.35;;
59300;SDS011;45073;52.740;6.784;2023-05-07T11:32:24;18.25;;;16.45;;
59300;SDS011;45073;52.740;6.784;2023-05-07T11:34:55;18.65;;;16.85;;
59300;SDS011;45073;52.740;6.784;2023-05-07T11:37:22;19.92;;;17.80;;
59300;SDS011;45073;52.740;6.784;2023-05-07T11:39:49;19.60;;;17.58;;
59300;SDS011;45073;52.740;6.784;2023-05-07T11:42:29;23.98;;;21.48;;
59300;SDS011;45073;52.740;6.784;2023-05-07T11:44:56;18.60;;;16.80;;
59300;SDS011;45073;52.740;6.784;2023-05-07T11:47:22;19.33;;;17.42;;
59300;SDS011;45073;52.740;6.784;2023-05-07T11:49:48;19.23;;;16.92;;
59300;SDS011;45073;52.740;6.784;2023-05-07T11:52:15;19.73;;;16.55;;
59300;SDS011;45073;52.740;6.784;2023-05-07T11:54:41;18.65;;;16.77;;
59300;SDS011;45073;52.740;6.784;2023-05-07T11:57:16;18.60;;;16.67;;
59300;SDS011;45073;52.740;6.784;2023-05-07T11:59:42;19.83;;;17.77;;
59300;SDS011;45073;52.740;6.784;2023-05-07T12:02:09;18.33;;;16.63;;
59300;SDS011;45073;52.740;6.784;2023-05-07T12:04:35;18.00;;;16.10;;
59300;SDS011;45073;52.740;6.784;2023-05-07T12:07:02;18.02;;;16.23;;
59300;SDS011;45073;52.740;6.784;2023-05-07T12:09:28;17.77;;;16.05;;
59300;SDS011;45073;52.740;6.784;2023-05-07T12:11:54;18.35;;;16.55;;
59300;SDS011;45073;52.740;6.784;2023-05-07T12:14:21;17.63;;;15.82;;
59300;SDS011;45073;52.740;6.784;2023-05-07T12:16:46;18.73;;;16.92;;
59300;SDS011;45073;52.740;6.784;2023-05-07T12:19:12;17.20;;;15.43;;
59300;SDS011;45073;52.740;6.784;2023-05-07T12:21:38;16.75;;;15.05;;
59300;SDS011;45073;52.740;6.784;2023-05-07T12:24:05;16.98;;;15.02;;
59300;SDS011;45073;52.740;6.784;2023-05-07T12:26:31;17.95;;;16.20;;
59300;SDS011;45073;52.740;6.784;2023-05-07T12:28:57;16.92;;;15.18;;
59300;SDS011;45073;52.740;6.784;2023-05-07T12:31:25;17.52;;;15.73;;
59300;SDS011;45073;52.740;6.784;2023-05-07T12:33:51;15.48;;;13.85;;
59300;SDS011;45073;52.740;6.784;2023-05-07T12:36:16;15.65;;;14.15;;
59300;SDS011;45073;52.740;6.784;2023-05-07T12:38:42;16.88;;;15.18;;
59300;SDS011;45073;52.740;6.784;2023-05-07T12:41:08;15.45;;;13.93;;
59300;SDS011;45073;52.740;6.784;2023-05-07T12:43:35;16.60;;;14.90;;
59300;SDS011;45073;52.740;6.784;2023-05-07T12:46:07;16.35;;;14.13;;
59300;SDS011;45073;52.740;6.784;2023-05-07T12:48:33;15.35;;;13.82;;
59300;SDS011;45073;52.740;6.784;2023-05-07T12:51:00;16.27;;;14.30;;
59300;SDS011;45073;52.740;6.784;2023-05-07T12:53:27;15.57;;;13.98;;
59300;SDS011;45073;52.740;6.784;2023-05-07T12:55:57;14.63;;;13.15;;
59300;SDS011;45073;52.740;6.784;2023-05-07T12:58:27;15.95;;;14.25;;
59300;SDS011;45073;52.740;6.784;2023-05-07T13:00:55;16.13;;;14.52;;
59300;SDS011;45073;52.740;6.784;2023-05-07T13:03:30;16.75;;;14.98;;
59300;SDS011;45073;52.740;6.784;2023-05-07T13:05:57;15.32;;;13.60;;
59300;SDS011;45073;52.740;6.784;2023-05-07T13:08:25;16.50;;;14.75;;
59300;SDS011;45073;52.740;6.784;2023-05-07T13:10:52;16.90;;;14.23;;
59300;SDS011;45073;52.740;6.784;2023-05-07T13:13:18;15.93;;;14.27;;
59300;SDS011;45073;52.740;6.784;2023-05-07T13:15:45;14.35;;;12.85;;
59300;SDS011;45073;52.740;6.784;2023-05-07T13:18:11;14.75;;;13.23;;
59300;SDS011;45073;52.740;6.784;2023-05-07T13:20:36;15.15;;;13.65;;
59300;SDS011;45073;52.740;6.784;2023-05-07T13:23:02;14.60;;;12.85;;
59300;SDS011;45073;52.740;6.784;2023-05-07T13:25:29;15.50;;;13.90;;
59300;SDS011;45073;52.740;6.784;2023-05-07T13:27:56;14.02;;;12.57;;
59300;SDS011;45073;52.740;6.784;2023-05-07T13:30:22;14.57;;;12.45;;
59300;SDS011;45073;52.740;6.784;2023-05-07T13:32:47;13.18;;;11.77;;
59300;SDS011;45073;52.740;6.784;2023-05-07T13:35:14;13.90;;;12.50;;
59300;SDS011;45073;52.740;6.784;2023-05-07T13:37:40;13.55;;;12.15;;
59300;SDS011;45073;52.740;6.784;2023-05-07T13:40:06;13.88;;;12.48;;
59300;SDS011;45073;52.740;6.784;2023-05-07T13:42:32;14.05;;;12.65;;
59300;SDS011;45073;52.740;6.784;2023-05-07T13:44:58;14.98;;;11.80;;
59300;SDS011;45073;52.740;6.784;2023-05-07T13:47:23;13.18;;;11.80;;
59300;SDS011;45073;52.740;6.784;2023-05-07T13:49:49;13.20;;;11.63;;
59300;SDS011;45073;52.740;6.784;2023-05-07T13:52:15;12.85;;;11.52;;
59300;SDS011;45073;52.740;6.784;2023-05-07T13:54:41;12.23;;;10.80;;
59300;SDS011;45073;52.740;6.784;2023-05-07T13:57:07;12.82;;;10.77;;
59300;SDS011;45073;52.740;6.784;2023-05-07T13:59:33;11.95;;;10.57;;
59300;SDS011;45073;52.740;6.784;2023-05-07T14:01:59;11.23;;;9.90;;
59300;SDS011;45073;52.740;6.784;2023-05-07T14:04:24;12.45;;;10.30;;
59300;SDS011;45073;52.740;6.784;2023-05-07T14:06:50;13.60;;;10.63;;
59300;SDS011;45073;52.740;6.784;2023-05-07T14:09:16;12.90;;;10.00;;
59300;SDS011;45073;52.740;6.784;2023-05-07T14:11:42;11.00;;;9.23;;
59300;SDS011;45073;52.740;6.784;2023-05-07T14:14:07;10.85;;;9.43;;
59300;SDS011;45073;52.740;6.784;2023-05-07T14:16:35;12.82;;;10.05;;
59300;SDS011;45073;52.740;6.784;2023-05-07T14:19:01;11.63;;;9.80;;
59300;SDS011;45073;52.740;6.784;2023-05-07T14:21:27;11.63;;;9.50;;
59300;SDS011;45073;52.740;6.784;2023-05-07T14:23:53;11.60;;;9.68;;
59300;SDS011;45073;52.740;6.784;2023-05-07T14:26:18;13.30;;;10.05;;
59300;SDS011;45073;52.740;6.784;2023-05-07T14:28:45;12.35;;;11.05;;
59300;SDS011;45073;52.740;6.784;2023-05-07T14:31:11;13.50;;;10.60;;
59300;SDS011;45073;52.740;6.784;2023-05-07T14:33:37;12.35;;;11.05;;
59300;SDS011;45073;52.740;6.784;2023-05-07T14:36:03;11.15;;;9.75;;
59300;SDS011;45073;52.740;6.784;2023-05-07T14:38:29;12.25;;;10.95;;